LiveATC.Net - Listen to live air traffic control over the Internet!

ICAO: EPWW  IATA: RZE   Airport: Warszawa Control Zone
City: Jasionka
Country: Poland   Continent: Europe
EPRZ METAR Weather: EPRZ 240130Z 36003KT 5000 BR NSC M07/M08 Q1005
EPWW Flight Activity (FlightAware)
EPRZ Del/Twr/EPWW Radar
Feed Status: UP   Listeners: 1
Listen right in your browser - requires Flash (in browser, requires Flash)
Click here to listen with your own player (launches your MP3 player)
EPRZ Del/Twr/EPWW Radar Audio Archives
EPWW Radar120.950
EPWW Radar134.175
Rzeszow Delivery121.800
Rzeszow Tower126.800


Unauthorized use prohibited. See Terms of Service

Find LiveATC Audio Streams

Airport/ARTCC Code

Frequency Search
(e.g., 124.400, 128.75)
Site-wide search

Browse LiveATC Feeds
LiveATC Coverage Map
Top 50 LiveATC Feeds
Bad Weather Areas

Offer a LiveATC Feed
Press Inquiries

LiveATC on iPhone
LiveATC on Android

Windows Phone
Windows 8/10

LiveATC Mobile
(Mobile browser)

ATC Audio Archives
Interesting Recordings

LiveATC Forums

Home Page
Make a Donation
Terms of Use
Privacy Policy

Canadian Air Freqs


FAA Airport Status
Nat'l Airspace Status
Arrival Demand Charts

Server Software By: